Terminal Aerodrome Forecast
Issued by NWS Charleston, SC

Home | Current Version | Previous Version | Text Only | Print | Product List | Glossary On
Versions: 1 2 3 4 5 6 7 8 9 10 11 12
000
FTUS42 KCHS 231700
TAFSAV
TAF
KSAV 231728Z 2318/2418 31006KT P6SM FEW050 SCT250
     FM232200 15004KT P6SM SCT050
     FM240300 VRB03KT P6SM SCT035
     FM241400 05010KT P6SM BKN035=

USA.gov is the U.S. government's official web portal to all federal, state and local government web resources and services.